Time;durP1;ratioP1;P1;durP2;ratioP2;P2;SDS_P1;SDS_P2;PMS_P1;PMS_P2;Temp;Humidity;BMP_temperature;BMP_pressure;BME280_temperature;BME280_humidity;BME280_pressure;Samples;Min_cycle;Max_cycle;Signal;HPM_P1;HPM_P2
2022/05/23 00:00:51;;;;;;;4.55;2.10;;;14.80;99.90;;;;;;5112646;28;20087;-65
2022/05/23 00:03:17;;;;;;;5.03;2.30;;;14.80;99.90;;;;;;5113920;28;20493;-66
2022/05/23 00:05:44;;;;;;;5.72;2.13;;;14.70;99.90;;;;;;5114079;28;20039;-65
2022/05/23 00:08:09;;;;;;;4.93;2.33;;;14.70;99.90;;;;;;5095818;28;20083;-67
2022/05/23 00:10:35;;;;;;;5.13;2.20;;;14.70;99.90;;;;;;5095649;28;20102;-66
2022/05/23 00:13:01;;;;;;;4.80;2.10;;;14.70;99.90;;;;;;5095464;28;20044;-65
2022/05/23 00:15:27;;;;;;;5.68;2.40;;;14.70;99.90;;;;;;5095927;28;20043;-64
2022/05/23 00:17:55;;;;;;;5.43;2.45;;;14.60;99.90;;;;;;5095265;28;20042;-65
2022/05/23 00:20:23;;;;;;;4.13;2.10;;;14.60;99.90;;;;;;5113414;28;20120;-66
2022/05/23 00:22:49;;;;;;;5.47;2.42;;;14.50;99.90;;;;;;5113494;28;20130;-67
2022/05/23 00:25:16;;;;;;;5.93;2.30;;;14.50;99.90;;;;;;5095270;28;20043;-65
2022/05/23 00:27:43;;;;;;;4.90;2.38;;;14.40;99.90;;;;;;5113620;28;20036;-65
2022/05/23 00:30:12;;;;;;;7.78;2.80;;;14.30;99.90;;;;;;5113146;28;20050;-65
2022/05/23 00:35:22;;;;;;;5.32;2.53;;;14.30;99.90;;;;;;5113697;28;20176;-64
2022/05/23 00:37:52;;;;;;;4.53;2.50;;;14.20;99.90;;;;;;5095122;28;20130;-67
2022/05/23 00:40:29;;;;;;;4.25;2.47;;;14.20;99.90;;;;;;5095488;28;20128;-65
2022/05/23 00:43:13;;;;;;;5.75;2.45;;;14.20;99.90;;;;;;5112965;28;20054;-65
2022/05/23 00:45:39;;;;;;;6.35;2.78;;;14.10;99.90;;;;;;5095192;28;20091;-65
2022/05/23 00:48:06;;;;;;;3.85;2.75;;;14.10;99.90;;;;;;5113027;28;20050;-65
2022/05/23 00:50:34;;;;;;;5.50;2.65;;;14.00;99.90;;;;;;5113197;28;20380;-65
2022/05/23 00:53:02;;;;;;;5.30;2.85;;;14.00;99.90;;;;;;5113013;28;20123;-66
2022/05/23 00:55:39;;;;;;;4.35;2.67;;;14.00;99.90;;;;;;5113340;28;20123;-65
2022/05/23 00:58:09;;;;;;;9.75;3.08;;;13.90;99.90;;;;;;5094450;28;20113;-65
2022/05/23 01:00:35;;;;;;;6.93;2.88;;;13.90;99.90;;;;;;5113115;28;20115;-64
2022/05/23 01:03:06;;;;;;;7.13;3.30;;;13.90;99.90;;;;;;5077575;28;20478;-65
2022/05/23 01:05:34;;;;;;;6.28;2.97;;;13.80;99.90;;;;;;5094912;28;20424;-65
2022/05/23 01:07:59;;;;;;;7.07;2.78;;;13.80;99.90;;;;;;5112606;28;20043;-65
2022/05/23 01:10:26;;;;;;;3.53;2.60;;;13.70;99.90;;;;;;5094564;28;20050;-65
2022/05/23 01:12:52;;;;;;;6.78;3.20;;;13.70;99.90;;;;;;5112832;28;20043;-66
2022/05/23 01:15:26;;;;;;;7.13;3.15;;;13.60;99.90;;;;;;5077632;28;20047;-66
2022/05/23 01:17:52;;;;;;;6.68;3.40;;;13.60;99.90;;;;;;5113164;28;20047;-67
2022/05/23 01:20:19;;;;;;;6.97;3.15;;;13.50;99.90;;;;;;5094559;28;20086;-65
2022/05/23 01:23:03;;;;;;;8.15;3.30;;;13.50;99.90;;;;;;5112525;28;20047;-65
2022/05/23 01:25:33;;;;;;;4.38;3.40;;;13.50;99.90;;;;;;5094600;28;20079;-65
2022/05/23 01:28:00;;;;;;;5.45;3.20;;;13.50;99.90;;;;;;5093968;28;20519;-66
2022/05/23 01:30:26;;;;;;;10.55;3.92;;;13.40;99.90;;;;;;5094551;28;20431;-65
2022/05/23 01:32:51;;;;;;;5.78;3.40;;;13.40;99.90;;;;;;5112339;28;20096;-65
2022/05/23 01:35:17;;;;;;;7.25;3.90;;;13.30;99.90;;;;;;5076966;28;20085;-65
2022/05/23 01:37:43;;;;;;;9.50;3.95;;;13.30;99.90;;;;;;5094143;28;20048;-64
2022/05/23 01:40:13;;;;;;;6.57;4.00;;;13.30;99.90;;;;;;5112053;28;20442;-65
2022/05/23 01:42:38;;;;;;;7.90;4.05;;;13.20;99.90;;;;;;5112265;28;20130;-66
2022/05/23 01:45:05;;;;;;;5.90;3.95;;;13.20;99.90;;;;;;5093790;28;20131;-65
2022/05/23 01:47:31;;;;;;;6.60;3.90;;;13.20;99.90;;;;;;5094347;28;20065;-66
2022/05/23 01:49:56;;;;;;;6.57;3.90;;;13.10;99.90;;;;;;5094097;28;20043;-66
2022/05/23 01:52:22;;;;;;;7.90;3.90;;;13.10;99.90;;;;;;5112159;28;20046;-65
2022/05/23 01:54:48;;;;;;;7.25;3.95;;;13.10;99.90;;;;;;5094290;28;20050;-65
2022/05/23 01:57:14;;;;;;;6.68;4.03;;;13.10;99.90;;;;;;5111608;28;20381;-67
2022/05/23 02:02:24;;;;;;;7.32;4.13;;;13.00;99.90;;;;;;5111894;28;20054;-65
2022/05/23 02:04:51;;;;;;;8.18;4.63;;;13.10;99.90;;;;;;5076937;28;20067;-66
2022/05/23 02:07:17;;;;;;;7.43;4.53;;;13.00;99.90;;;;;;5111654;28;20056;-65
2022/05/23 02:09:43;;;;;;;9.07;4.90;;;13.10;99.90;;;;;;5112220;28;20412;-65
2022/05/23 02:12:11;;;;;;;7.80;4.72;;;13.10;99.90;;;;;;5093591;28;20051;-66
2022/05/23 02:14:37;;;;;;;5.82;3.70;;;13.10;99.90;;;;;;5111863;28;20043;-65
2022/05/23 02:17:04;;;;;;;6.03;3.75;;;13.10;99.90;;;;;;5093200;28;20043;-66
2022/05/23 02:19:32;;;;;;;8.05;4.05;;;13.10;99.90;;;;;;5111992;28;20396;-65
2022/05/23 02:21:58;;;;;;;7.80;4.25;;;13.10;99.90;;;;;;5093128;28;20180;-65
2022/05/23 02:24:23;;;;;;;6.28;4.00;;;13.10;99.90;;;;;;5093222;28;20624;-65
2022/05/23 02:26:49;;;;;;;5.22;3.58;;;13.10;99.90;;;;;;5111740;28;20040;-64
2022/05/23 02:29:15;;;;;;;10.10;3.92;;;13.10;99.90;;;;;;5093539;28;20040;-66
2022/05/23 02:31:41;;;;;;;4.82;3.47;;;13.10;99.90;;;;;;5093209;28;20044;-63
2022/05/23 02:34:07;;;;;;;7.00;3.65;;;13.10;99.90;;;;;;5111076;28;20391;-63
2022/05/23 02:36:33;;;;;;;5.80;3.63;;;13.10;99.90;;;;;;5111467;28;20126;-64
2022/05/23 02:38:59;;;;;;;6.82;3.10;;;13.10;99.90;;;;;;5111577;28;20155;-63
2022/05/23 02:41:24;;;;;;;8.63;3.92;;;13.10;99.90;;;;;;5111299;28;20044;-64
2022/05/23 02:43:50;;;;;;;6.70;3.60;;;13.10;99.90;;;;;;5111142;28;20039;-63
2022/05/23 02:46:16;;;;;;;7.57;3.55;;;13.10;99.90;;;;;;5111101;28;20047;-63
2022/05/23 02:48:42;;;;;;;8.30;4.15;;;13.10;99.90;;;;;;5093597;28;20055;-63
2022/05/23 02:51:08;;;;;;;6.30;3.55;;;13.10;99.90;;;;;;5110957;28;20079;-63
2022/05/23 02:53:34;;;;;;;5.20;3.03;;;13.10;99.90;;;;;;5076666;28;20052;-63
2022/05/23 02:55:59;;;;;;;4.82;3.05;;;13.10;99.90;;;;;;5111314;28;20428;-62
2022/05/23 02:58:25;;;;;;;8.02;3.70;;;13.10;99.90;;;;;;5089474;28;20260;-63
2022/05/23 03:00:51;;;;;;;7.57;3.42;;;13.10;99.90;;;;;;5090863;28;20130;-63
2022/05/23 03:03:17;;;;;;;8.10;3.47;;;13.00;99.90;;;;;;5072611;28;20429;-63
2022/05/23 03:05:48;;;;;;;6.15;3.22;;;13.00;99.90;;;;;;5091019;28;20040;-62
2022/05/23 03:08:17;;;;;;;8.07;3.20;;;13.00;99.90;;;;;;5090737;28;20439;-62
2022/05/23 03:10:44;;;;;;;7.20;3.35;;;13.00;99.90;;;;;;5090964;28;20044;-63
2022/05/23 03:13:10;;;;;;;6.38;3.25;;;13.00;99.90;;;;;;5090575;28;20043;-63
2022/05/23 03:15:36;;;;;;;5.03;3.20;;;13.00;99.90;;;;;;5090631;28;20131;-64
2022/05/23 03:18:03;;;;;;;6.30;3.47;;;13.00;99.90;;;;;;5090850;28;20094;-64
2022/05/23 03:20:28;;;;;;;4.97;3.28;;;13.00;99.90;;;;;;5090839;28;20056;-63
2022/05/23 03:28:24;;;;;;;6.03;3.47;;;13.00;99.90;;;;;;5090557;28;20040;-63
2022/05/23 03:30:50;;;;;;;7.50;3.30;;;13.10;99.90;;;;;;5072505;28;20051;-63
2022/05/23 03:33:16;;;;;;;7.35;3.67;;;12.90;99.90;;;;;;5089339;28;20051;-63
2022/05/23 03:35:43;;;;;;;6.45;3.00;;;12.90;99.90;;;;;;5093365;28;20044;-64
2022/05/23 03:38:10;;;;;;;5.43;2.90;;;12.90;99.90;;;;;;5094122;28;20050;-63
2022/05/23 03:40:38;;;;;;;7.10;3.13;;;12.90;99.90;;;;;;5076242;28;20063;-63
2022/05/23 03:43:04;;;;;;;8.73;3.47;;;12.90;99.90;;;;;;5094013;28;20044;-63
2022/05/23 03:45:31;;;;;;;7.07;2.97;;;12.90;99.90;;;;;;5075497;28;20048;-64
2022/05/23 03:47:57;;;;;;;6.88;3.13;;;12.90;99.90;;;;;;5093832;28;20047;-63
2022/05/23 03:50:26;;;;;;;7.38;2.95;;;12.90;99.90;;;;;;5093763;28;20052;-63
2022/05/23 03:52:52;;;;;;;6.25;3.05;;;13.00;99.90;;;;;;5093961;28;20092;-64
2022/05/23 03:55:19;;;;;;;7.03;3.40;;;12.90;99.90;;;;;;5092401;28;20130;-64
2022/05/23 03:57:44;;;;;;;5.20;3.33;;;12.90;99.90;;;;;;5092230;28;20508;-64
2022/05/23 04:00:14;;;;;;;7.55;3.38;;;12.90;99.90;;;;;;5092491;28;20048;-64
2022/05/23 04:02:41;;;;;;;8.13;3.53;;;13.00;99.90;;;;;;5093617;28;20040;-64
2022/05/23 04:05:10;;;;;;;6.65;2.97;;;13.00;99.90;;;;;;5092630;28;20056;-64
2022/05/23 04:07:37;;;;;;;6.53;3.13;;;13.00;99.90;;;;;;5093424;28;20134;-64
2022/05/23 04:10:13;;;;;;;5.85;3.35;;;13.00;99.90;;;;;;5093781;28;20055;-64
2022/05/23 04:12:39;;;;;;;6.15;3.42;;;13.10;99.90;;;;;;5092245;28;20056;-64
2022/05/23 04:15:06;;;;;;;6.32;3.72;;;13.10;99.90;;;;;;5093697;28;20487;-63
2022/05/23 04:17:32;;;;;;;5.07;3.47;;;13.10;99.90;;;;;;5092975;28;20533;-64
2022/05/23 04:19:57;;;;;;;7.25;3.15;;;13.10;99.90;;;;;;5092267;28;20044;-63
2022/05/23 04:22:23;;;;;;;6.30;3.70;;;13.20;99.90;;;;;;5093128;28;20044;-63
2022/05/23 04:24:50;;;;;;;5.13;3.20;;;13.20;99.90;;;;;;5093341;28;20085;-63
2022/05/23 04:27:16;;;;;;;8.02;3.47;;;13.20;99.90;;;;;;5093460;28;20058;-63
2022/05/23 04:29:42;;;;;;;5.93;3.38;;;13.20;99.90;;;;;;5092152;28;20350;-63
2022/05/23 04:35:12;;;;;;;5.85;3.40;;;13.20;99.90;;;;;;5093454;28;20044;-64
2022/05/23 04:35:13;;;;;;;6.45;3.60;;;13.20;99.90;;;;;;5093089;28;20094;-64
2022/05/23 04:37:48;;;;;;;8.00;3.50;;;13.20;99.90;;;;;;5092760;28;20453;-62
2022/05/23 04:40:17;;;;;;;6.75;3.95;;;13.30;99.90;;;;;;5091800;28;20054;-63
2022/05/23 04:42:43;;;;;;;8.65;3.88;;;13.30;99.90;;;;;;5091704;28;20056;-65
2022/05/23 04:45:10;;;;;;;5.93;4.00;;;13.40;99.90;;;;;;5092320;28;20563;-63
2022/05/23 04:50:20;;;;;;;8.65;4.03;;;13.40;99.90;;;;;;5092707;28;20127;-66
2022/05/23 04:52:47;;;;;;;12.25;4.55;;;13.50;99.90;;;;;;5092071;28;20433;-63
2022/05/23 04:55:14;;;;;;;6.72;3.88;;;13.60;99.90;;;;;;5092957;28;20059;-64
2022/05/23 04:57:40;;;;;;;6.22;3.47;;;13.80;99.90;;;;;;5104999;28;20572;-64
2022/05/23 05:00:08;;;;;;;6.80;4.25;;;14.00;99.90;;;;;;5094887;28;20083;-63
2022/05/23 05:02:35;;;;;;;6.72;3.83;;;14.10;99.90;;;;;;5112767;28;20050;-63
2022/05/23 05:05:02;;;;;;;6.80;3.85;;;14.40;99.90;;;;;;5078094;28;20043;-62
2022/05/23 05:07:27;;;;;;;6.65;4.00;;;14.90;99.90;;;;;;5094419;28;20075;-63
2022/05/23 05:09:53;;;;;;;8.35;3.42;;;15.60;99.90;;;;;;5113056;28;20048;-63
2022/05/23 05:12:19;;;;;;;5.90;3.22;;;16.30;99.90;;;;;;5112881;28;20126;-64
2022/05/23 05:14:44;;;;;;;7.22;3.45;;;16.90;99.90;;;;;;5112338;28;20050;-64
2022/05/23 05:17:10;;;;;;;6.80;3.47;;;17.40;99.90;;;;;;5094625;28;20058;-62
2022/05/23 05:19:36;;;;;;;6.38;3.40;;;17.80;99.90;;;;;;5094518;28;20043;-64
2022/05/23 05:22:03;;;;;;;7.35;3.65;;;18.00;99.90;;;;;;5112800;28;20524;-62
2022/05/23 05:24:32;;;;;;;5.53;3.17;;;18.20;99.90;;;;;;5112322;28;20060;-64
2022/05/23 05:27:00;;;;;;;9.18;3.58;;;18.20;99.90;;;;;;5095037;28;20437;-64
2022/05/23 05:29:26;;;;;;;6.90;3.45;;;18.10;99.90;;;;;;5112051;28;20507;-64
2022/05/23 05:31:57;;;;;;;6.80;3.40;;;17.80;99.90;;;;;;5112612;28;20043;-62
2022/05/23 05:34:34;;;;;;;5.78;3.58;;;17.50;99.90;;;;;;5094194;28;20047;-63
2022/05/23 05:37:06;;;;;;;7.18;3.58;;;17.00;99.90;;;;;;5094149;28;20175;-63
2022/05/23 05:39:35;;;;;;;5.85;3.90;;;16.90;99.90;;;;;;5112401;28;20047;-63
2022/05/23 05:42:26;;;;;;;6.85;3.92;;;16.70;99.90;;;;;;5094332;28;20126;-64
2022/05/23 05:44:59;;;;;;;8.20;4.32;;;16.50;99.90;;;;;;5094381;28;20484;-63
2022/05/23 05:47:25;;;;;;;9.55;4.40;;;16.60;99.90;;;;;;5094047;28;20053;-64
2022/05/23 05:49:54;;;;;;;9.95;4.15;;;16.70;99.90;;;;;;5111827;28;20476;-63
2022/05/23 05:52:23;;;;;;;8.82;4.05;;;16.90;99.90;;;;;;5112176;28;20082;-63
2022/05/23 05:54:50;;;;;;;9.75;4.57;;;17.00;99.90;;;;;;5111776;28;20083;-63
2022/05/23 05:57:16;;;;;;;8.48;4.30;;;17.00;99.90;;;;;;5089544;28;20125;-65
2022/05/23 05:59:42;;;;;;;7.03;4.05;;;16.80;99.90;;;;;;5090509;28;20052;-64
2022/05/23 06:02:09;;;;;;;7.90;4.07;;;16.90;99.90;;;;;;5090597;28;20062;-62
2022/05/23 06:04:35;;;;;;;6.85;3.95;;;17.20;99.90;;;;;;5091220;28;20040;-64
2022/05/23 06:12:31;;;;;;;;;;;19.20;99.90;;;;;;5091505;28;20044;-65
2022/05/23 06:14:57;;;;;;;7.88;3.72;;;19.80;99.90;;;;;;5091429;28;19949;-65
2022/05/23 06:17:24;;;;;;;6.50;3.95;;;19.80;99.90;;;;;;5090246;28;20091;-63
2022/05/23 06:19:49;;;;;;;7.60;4.13;;;19.80;99.90;;;;;;5091230;28;20047;-64
2022/05/23 06:22:17;;;;;;;9.25;3.90;;;19.70;99.90;;;;;;5091395;28;20044;-69
2022/05/23 06:24:44;;;;;;;7.95;4.25;;;19.80;99.90;;;;;;5091187;28;20408;-66
2022/05/23 06:27:10;;;;;;;10.80;4.07;;;20.00;99.90;;;;;;5090880;28;20082;-65
2022/05/23 06:29:38;;;;;;;9.05;4.50;;;20.00;99.70;;;;;;5090103;28;20075;-64
2022/05/23 06:32:04;;;;;;;8.98;4.32;;;20.10;99.30;;;;;;5090436;28;20044;-65
2022/05/23 06:34:30;;;;;;;11.25;5.00;;;20.30;99.80;;;;;;5091365;28;20060;-65
2022/05/23 06:36:56;;;;;;;8.68;4.22;;;20.40;99.20;;;;;;5090936;28;20041;-65
2022/05/23 06:39:22;;;;;;;10.23;4.20;;;20.30;98.80;;;;;;5091144;28;20432;-65
2022/05/23 06:41:48;;;;;;;9.05;4.78;;;20.20;99.10;;;;;;5090768;28;20054;-65
2022/05/23 06:44:14;;;;;;;11.65;4.90;;;20.00;99.40;;;;;;5091318;28;20131;-64
2022/05/23 06:46:41;;;;;;;9.30;5.07;;;19.90;99.60;;;;;;5090837;28;20456;-65
2022/05/23 06:49:08;;;;;;;8.18;4.60;;;19.80;99.40;;;;;;5091114;28;20443;-65
2022/05/23 06:51:35;;;;;;;9.02;4.68;;;19.90;99.40;;;;;;5091283;28;20116;-64
2022/05/23 06:54:01;;;;;;;8.80;4.80;;;19.90;99.50;;;;;;5091074;28;20113;-64
2022/05/23 06:56:28;;;;;;;9.27;4.20;;;20.10;99.80;;;;;;5093574;28;20826;-64
2022/05/23 06:58:54;;;;;;;16.38;4.68;;;20.40;99.00;;;;;;5111235;28;20400;-64
2022/05/23 07:01:20;;;;;;;10.65;4.68;;;20.40;99.20;;;;;;5093168;28;20561;-64
2022/05/23 07:03:46;;;;;;;10.18;5.03;;;20.40;99.20;;;;;;5111107;28;20071;-62
2022/05/23 07:14:26;;;;;;;6.88;3.83;;;21.10;98.50;;;;;;5115164;28;19920;-64
2022/05/23 07:16:53;;;;;;;8.60;4.07;;;21.30;98.30;;;;;;5114562;28;20046;-64
2022/05/23 07:19:19;;;;;;;9.82;4.03;;;21.50;98.40;;;;;;5096317;28;20373;-65
2022/05/23 07:21:44;;;;;;;9.85;4.15;;;21.70;97.90;;;;;;5114567;28;20176;-64
2022/05/23 07:24:11;;;;;;;7.30;3.80;;;21.90;97.80;;;;;;5114913;28;20047;-64
2022/05/23 07:26:37;;;;;;;7.68;4.20;;;22.30;97.00;;;;;;5114468;28;20529;-66
2022/05/23 07:29:03;;;;;;;9.75;3.97;;;22.50;96.60;;;;;;5096576;28;20215;-65
2022/05/23 07:31:29;;;;;;;5.90;3.58;;;22.70;96.30;;;;;;5114927;28;20397;-65
2022/05/23 07:33:55;;;;;;;7.95;3.90;;;22.70;96.50;;;;;;5096427;28;20052;-65
2022/05/23 07:36:21;;;;;;;8.20;3.45;;;23.20;95.80;;;;;;5114494;28;20472;-63
2022/05/23 07:38:47;;;;;;;6.47;3.72;;;23.30;95.80;;;;;;5113862;28;20515;-63
2022/05/23 07:41:13;;;;;;;6.07;3.75;;;23.70;94.90;;;;;;5114301;28;20051;-63
2022/05/23 07:43:41;;;;;;;8.05;3.65;;;24.00;95.00;;;;;;5114556;28;20126;-65
2022/05/23 07:46:14;;;;;;;5.70;3.22;;;24.50;94.80;;;;;;5096277;28;20052;-65
2022/05/23 07:48:47;;;;;;;7.53;3.88;;;24.70;94.00;;;;;;5114378;28;20112;-64
2022/05/23 07:51:14;;;;;;;;;;;24.50;93.50;;;;;;5115084;28;20097;-66
2022/05/23 08:01:54;;;;;;;8.35;3.90;;;23.90;94.00;;;;;;5114179;28;20078;-65
2022/05/23 08:04:20;;;;;;;7.55;3.70;;;23.80;93.90;;;;;;5095938;28;20047;-64
2022/05/23 08:06:47;;;;;;;9.88;4.20;;;23.90;94.20;;;;;;5114013;28;20118;-65
2022/05/23 08:09:13;;;;;;;6.68;3.95;;;23.80;94.10;;;;;;5078750;28;20079;-64
2022/05/23 08:11:42;;;;;;;9.40;3.60;;;24.10;94.30;;;;;;5095359;28;20050;-66
2022/05/23 08:14:08;;;;;;;9.65;3.53;;;24.60;94.00;;;;;;5114003;28;20486;-65
2022/05/23 08:16:35;;;;;;;9.10;3.55;;;25.00;93.80;;;;;;5113980;28;20043;-64
2022/05/23 08:19:02;;;;;;;7.75;4.10;;;25.10;93.30;;;;;;5078615;28;20132;-65
2022/05/23 08:21:28;;;;;;;9.70;4.22;;;25.20;93.30;;;;;;5094768;28;20063;-63
2022/05/23 08:23:54;;;;;;;6.53;4.00;;;25.10;93.60;;;;;;5113660;28;20043;-64
2022/05/23 08:26:20;;;;;;;12.50;3.95;;;24.90;93.10;;;;;;5095458;28;20488;-63
2022/05/23 08:28:47;;;;;;;8.60;4.18;;;24.60;93.40;;;;;;5113657;28;20043;-63
2022/05/23 08:31:13;;;;;;;6.40;3.83;;;24.60;93.30;;;;;;5095357;28;20117;-67
2022/05/23 08:33:39;;;;;;;7.18;4.40;;;24.60;93.00;;;;;;5093215;28;20051;-65
2022/05/23 08:36:05;;;;;;;6.50;3.70;;;24.20;93.10;;;;;;5113561;28;20126;-64
2022/05/23 08:38:30;;;;;;;8.70;3.88;;;24.20;93.60;;;;;;5113244;28;20039;-64
2022/05/23 08:41:14;;;;;;;7.63;3.90;;;24.20;93.50;;;;;;5112703;28;20043;-64
2022/05/23 08:43:52;;;;;;;10.13;4.05;;;24.40;93.70;;;;;;5113311;28;20043;-64
2022/05/23 08:46:41;;;;;;;7.57;3.72;;;24.60;93.70;;;;;;5113413;28;20055;-65
2022/05/23 08:49:21;;;;;;;9.52;4.05;;;25.10;93.00;;;;;;5112259;28;20056;-64
2022/05/23 08:52:06;;;;;;;9.13;4.13;;;25.80;93.10;;;;;;5095047;28;20407;-64
2022/05/23 08:54:53;;;;;;;11.77;3.70;;;26.10;92.50;;;;;;5112994;28;20404;-65
2022/05/23 08:57:50;;;;;;;7.85;3.97;;;26.80;92.20;;;;;;5112665;28;20052;-64
2022/05/23 09:00:20;;;;;;;8.15;3.80;;;27.30;92.10;;;;;;5112801;28;20051;-64
2022/05/23 09:03:10;;;;;;;6.75;3.60;;;27.20;91.20;;;;;;5113183;28;20127;-65
2022/05/23 09:05:44;;;;;;;7.80;3.80;;;26.70;91.10;;;;;;5113300;28;20039;-65
2022/05/23 09:08:19;;;;;;;8.88;4.25;;;26.60;91.30;;;;;;5091081;28;20040;-64
2022/05/23 09:10:54;;;;;;;7.50;4.13;;;26.40;91.20;;;;;;5111928;28;20069;-64
2022/05/23 09:13:22;;;;;;;8.32;3.90;;;26.00;91.40;;;;;;5112727;28;20043;-64
2022/05/23 09:15:51;;;;;;;7.35;3.70;;;26.00;91.40;;;;;;5112954;28;20385;-63
2022/05/23 09:18:22;;;;;;;7.75;3.85;;;25.90;91.40;;;;;;5112429;28;20043;-64
2022/05/23 09:20:51;;;;;;;6.63;3.97;;;25.90;91.90;;;;;;5112694;28;20049;-65
2022/05/23 09:23:29;;;;;;;7.57;3.92;;;26.00;91.70;;;;;;5112253;28;20065;-65
2022/05/23 09:25:56;;;;;;;8.13;4.50;;;26.20;91.50;;;;;;5094544;28;20404;-66
2022/05/23 09:28:34;;;;;;;11.70;4.10;;;26.40;91.50;;;;;;5094472;28;20104;-64
2022/05/23 09:31:27;;;;;;;7.47;3.88;;;26.50;91.70;;;;;;5112263;28;20040;-64
2022/05/23 09:33:56;;;;;;;6.70;3.40;;;26.70;91.50;;;;;;5094307;28;20048;-64
2022/05/23 09:36:33;;;;;;;8.60;3.83;;;26.90;91.20;;;;;;5077462;28;20134;-65
2022/05/23 09:39:05;;;;;;;7.90;3.88;;;27.00;90.90;;;;;;5073756;28;20047;-64
2022/05/23 09:49:55;;;;;;;8.02;3.40;;;27.60;90.40;;;;;;5112179;28;20082;-64
2022/05/23 09:52:28;;;;;;;4.32;2.80;;;27.50;89.60;;;;;;5111760;28;20044;-65
2022/05/23 09:54:57;;;;;;;6.03;2.67;;;27.20;88.60;;;;;;5094042;28;20380;-65
2022/05/23 09:57:35;;;;;;;4.50;2.28;;;26.90;89.10;;;;;;5091826;28;20059;-64
2022/05/23 10:00:07;;;;;;;4.65;2.40;;;26.80;88.10;;;;;;5112184;28;20051;-64
2022/05/23 10:02:37;;;;;;;6.00;2.13;;;26.70;88.70;;;;;;5111662;28;20496;-65
2022/05/23 10:05:20;;;;;;;8.30;2.85;;;26.70;88.10;;;;;;5112166;28;20104;-63
2022/05/23 10:07:49;;;;;;;4.40;2.97;;;26.50;88.30;;;;;;5093716;28;20123;-64
2022/05/23 10:10:21;;;;;;;9.10;3.75;;;26.50;88.00;;;;;;5092574;28;20082;-65
2022/05/23 10:12:48;;;;;;;9.32;3.20;;;26.30;88.80;;;;;;5111666;28;20043;-64
2022/05/23 10:15:28;;;;;;;8.73;3.17;;;26.10;89.60;;;;;;5110629;28;20057;-67
2022/05/23 10:18:07;;;;;;;5.38;2.70;;;25.90;90.00;;;;;;5111049;28;20039;-63
2022/05/23 10:20:41;;;;;;;5.93;3.20;;;25.90;90.10;;;;;;5111297;28;20050;-63
2022/05/23 10:23:15;;;;;;;7.38;3.00;;;26.00;89.90;;;;;;5111156;28;20058;-64
2022/05/23 10:26:06;;;;;;;6.78;2.88;;;25.80;90.10;;;;;;5111513;28;20046;-64
2022/05/23 10:28:52;;;;;;;7.85;3.08;;;25.80;90.50;;;;;;5111882;28;20047;-63
2022/05/23 10:31:44;;;;;;;6.70;3.13;;;25.80;90.10;;;;;;5093604;28;20051;-64
2022/05/23 10:34:28;;;;;;;8.18;2.83;;;25.80;90.50;;;;;;5099153;28;20055;-64
2022/05/23 10:36:54;;;;;;;;;;;25.80;90.00;;;;;;5112302;28;20051;-65
2022/05/23 10:42:25;;;;;;;6.80;2.72;;;25.70;90.40;;;;;;5111009;28;20056;-64
2022/05/23 10:45:09;;;;;;;4.72;2.38;;;25.70;90.40;;;;;;5114865;28;20550;-63
2022/05/23 10:47:57;;;;;;;4.63;2.35;;;25.80;90.40;;;;;;5115867;28;20122;-64
2022/05/23 10:50:31;;;;;;;5.47;2.40;;;26.10;89.30;;;;;;5115396;28;20056;-63
2022/05/23 10:53:16;;;;;;;5.70;2.20;;;26.20;88.60;;;;;;5115785;28;20123;-62
2022/05/23 10:55:49;;;;;;;4.55;2.30;;;26.30;89.30;;;;;;5097238;28;20073;-62
2022/05/23 10:58:30;;;;;;;;;;;26.30;90.00;;;;;;5093724;28;20405;-64
2022/05/23 11:01:09;;;;;;;6.32;2.47;;;26.50;90.10;;;;;;5094031;28;19977;-63
2022/05/23 11:03:52;;;;;;;5.10;2.45;;;26.60;89.60;;;;;;5093985;28;20044;-64
2022/05/23 11:06:39;;;;;;;5.03;2.22;;;26.60;88.40;;;;;;5094854;28;20054;-66
2022/05/23 11:09:20;;;;;;;4.30;2.40;;;26.60;88.30;;;;;;5095137;28;20048;-64
2022/05/23 11:11:51;;;;;;;4.07;2.03;;;26.70;89.00;;;;;;5094006;28;20055;-63
2022/05/23 11:14:35;;;;;;;5.50;2.40;;;26.80;87.20;;;;;;5094688;28;20137;-63
2022/05/23 11:17:22;;;;;;;5.18;2.60;;;27.00;88.30;;;;;;5094977;28;20161;-63
2022/05/23 11:19:48;;;;;;;7.47;2.60;;;26.90;88.40;;;;;;5094908;28;20485;-64
2022/05/23 11:22:22;;;;;;;5.75;2.40;;;26.90;88.40;;;;;;5092942;28;20105;-64
2022/05/23 11:25:13;;;;;;;4.68;2.63;;;26.80;87.10;;;;;;5093463;28;20096;-64
2022/05/23 11:33:46;;;;;;;4.40;1.85;;;26.60;87.50;;;;;;5059731;28;20048;-63
2022/05/23 11:36:18;;;;;;;4.57;2.03;;;26.50;83.30;;;;;;5087423;28;20052;-65
2022/05/23 11:38:47;;;;;;;4.88;2.10;;;26.50;84.30;;;;;;5094480;28;20144;-63
2022/05/23 11:41:41;;;;;;;4.32;2.33;;;26.60;84.30;;;;;;5075834;28;20396;-64
2022/05/23 11:44:34;;;;;;;3.63;1.85;;;26.50;83.10;;;;;;5094207;28;20179;-63
2022/05/23 11:47:24;;;;;;;3.20;1.75;;;26.40;82.20;;;;;;5093879;28;20140;-64
2022/05/23 11:50:18;;;;;;;4.65;1.90;;;26.40;82.70;;;;;;5094167;28;20059;-64
2022/05/23 11:52:49;;;;;;;4.43;1.95;;;26.30;83.20;;;;;;5094113;28;20054;-65
2022/05/23 11:55:55;;;;;;;4.75;2.20;;;26.10;83.40;;;;;;5092201;28;20505;-64
2022/05/23 11:58:43;;;;;;;7.25;1.85;;;25.90;84.10;;;;;;5094303;28;20063;-66
2022/05/23 12:01:11;;;;;;;3.00;1.80;;;25.90;84.80;;;;;;5112562;28;20116;-66
2022/05/23 12:03:52;;;;;;;6.03;2.30;;;25.80;84.50;;;;;;5077902;28;20134;-64
2022/05/23 12:06:19;;;;;;;6.95;2.38;;;25.80;85.00;;;;;;5095524;28;20040;-66
2022/05/23 12:09:03;;;;;;;5.63;2.50;;;25.80;86.20;;;;;;5113987;28;20149;-66
2022/05/23 12:11:34;;;;;;;7.45;2.03;;;25.90;85.50;;;;;;5113693;28;20047;-66
2022/05/23 12:14:42;;;;;;;4.22;2.05;;;26.00;86.00;;;;;;5096004;28;20055;-66
2022/05/23 12:17:25;;;;;;;4.60;2.13;;;26.10;85.10;;;;;;5113471;28;20046;-64
2022/05/23 12:19:59;;;;;;;4.05;1.90;;;26.10;84.80;;;;;;5095788;28;20064;-64
2022/05/23 12:22:55;;;;;;;5.15;1.70;;;26.10;85.20;;;;;;5113407;28;20080;-66
2022/05/23 12:25:24;;;;;;;4.07;2.05;;;26.20;85.40;;;;;;5112498;28;20131;-66
2022/05/23 12:27:50;;;;;;;7.22;2.17;;;26.30;84.70;;;;;;5113203;28;20036;-66
2022/05/23 12:30:24;;;;;;;4.07;2.00;;;26.40;84.40;;;;;;5113513;28;20142;-65
2022/05/23 12:32:56;;;;;;;3.22;1.90;;;26.40;84.90;;;;;;5113635;28;20050;-65
2022/05/23 12:35:40;;;;;;;5.35;2.08;;;26.30;84.60;;;;;;5112961;28;20505;-66
2022/05/23 12:38:14;;;;;;;5.07;1.88;;;26.30;83.60;;;;;;5095073;28;20473;-66
2022/05/23 12:41:15;;;;;;;4.60;2.00;;;26.20;83.50;;;;;;5094698;28;20047;-66
2022/05/23 12:44:09;;;;;;;6.63;2.53;;;26.10;83.90;;;;;;5107463;28;20052;-65
2022/05/23 12:46:48;;;;;;;7.45;2.10;;;25.90;84.50;;;;;;5113079;28;20073;-65
2022/05/23 12:49:23;;;;;;;5.15;2.10;;;25.80;85.00;;;;;;5112982;28;20063;-65
2022/05/23 12:52:20;;;;;;;6.53;2.20;;;25.70;84.60;;;;;;5094171;28;20134;-65
2022/05/23 12:54:54;;;;;;;6.25;2.05;;;25.80;86.00;;;;;;5071242;28;20048;-66
2022/05/23 12:57:59;;;;;;;7.38;2.45;;;25.80;85.50;;;;;;5112689;28;20051;-69
2022/05/23 13:00:53;;;;;;;;;;;25.60;85.10;;;;;;5074352;28;20054;-66
2022/05/23 13:03:33;;;;;;;5.67;2.00;;;25.60;85.40;;;;;;5091271;28;19930;-65
2022/05/23 13:06:18;;;;;;;5.35;2.17;;;25.50;86.00;;;;;;5112384;28;20066;-64
2022/05/23 13:08:51;;;;;;;6.18;2.40;;;25.50;86.40;;;;;;5112251;28;20451;-66
2022/05/23 13:11:25;;;;;;;4.82;2.30;;;25.50;87.10;;;;;;5094500;28;20100;-66
2022/05/23 13:13:51;;;;;;;3.90;2.10;;;25.50;86.90;;;;;;5112800;28;20434;-65
2022/05/23 13:16:29;;;;;;;5.18;1.98;;;25.50;86.50;;;;;;5094359;28;20396;-67
2022/05/23 13:27:13;;;;;;;6.25;2.42;;;25.40;87.20;;;;;;5112442;28;20089;-65
2022/05/23 13:29:40;;;;;;;4.22;2.08;;;25.40;87.30;;;;;;5111910;28;20058;-66
2022/05/23 13:32:12;;;;;;;5.20;2.03;;;25.40;87.40;;;;;;5094147;28;20521;-65
2022/05/23 13:34:40;;;;;;;5.25;2.30;;;25.40;87.80;;;;;;5094090;28;20051;-66
2022/05/23 13:37:07;;;;;;;5.00;2.35;;;25.40;88.20;;;;;;5112293;28;20090;-65
2022/05/23 13:39:46;;;;;;;6.20;2.40;;;25.40;87.80;;;;;;5111920;28;20057;-65
2022/05/23 13:42:24;;;;;;;6.93;3.08;;;25.30;88.90;;;;;;5112319;28;20086;-65
2022/05/23 13:44:50;;;;;;;3.83;2.20;;;25.30;89.30;;;;;;5112206;28;20400;-65
2022/05/23 13:47:28;;;;;;;7.10;2.78;;;25.30;89.90;;;;;;5093708;28;20046;-64
2022/05/23 13:50:05;;;;;;;6.28;2.60;;;25.20;90.00;;;;;;5112195;28;20369;-65
2022/05/23 13:52:40;;;;;;;7.50;2.80;;;25.10;89.40;;;;;;5111660;28;20047;-65
2022/05/23 13:55:20;;;;;;;6.88;2.85;;;25.10;89.30;;;;;;5094260;28;20104;-65
2022/05/23 13:57:56;;;;;;;7.65;2.63;;;25.10;89.60;;;;;;5111799;28;20379;-66
2022/05/23 14:00:32;;;;;;;5.88;2.30;;;25.10;89.40;;;;;;5094253;28;20051;-64
2022/05/23 14:03:10;;;;;;;4.55;2.20;;;25.20;89.60;;;;;;5111582;28;20500;-65
2022/05/23 14:05:45;;;;;;;5.85;2.50;;;25.10;89.90;;;;;;5111774;28;20040;-65
2022/05/23 14:08:20;;;;;;;12.77;3.00;;;25.10;90.70;;;;;;5111763;28;20047;-65
2022/05/23 14:10:47;;;;;;;5.03;2.55;;;25.10;91.50;;;;;;5111428;28;20055;-69